createdAt,value
2022-11-25T00:01:07.344Z,8.03
2022-11-25T00:03:36.035Z,7.33
2022-11-25T00:06:15.576Z,8.60
2022-11-25T00:08:44.587Z,6.50
2022-11-25T00:11:13.461Z,6.53
2022-11-25T00:13:42.257Z,6.00
2022-11-25T00:16:13.950Z,6.70
2022-11-25T00:18:45.178Z,6.90
2022-11-25T00:21:14.731Z,6.83
2022-11-25T00:23:42.552Z,7.70
2022-11-25T00:26:14.460Z,6.57
2022-11-25T00:28:43.596Z,8.10
2022-11-25T00:31:15.370Z,8.80
2022-11-25T00:33:44.114Z,7.03
2022-11-25T00:36:17.375Z,7.07
2022-11-25T00:38:45.980Z,7.00
2022-11-25T00:41:31.263Z,7.07
2022-11-25T00:44:18.050Z,6.20
2022-11-25T00:46:47.468Z,6.80
2022-11-25T00:49:15.162Z,7.40
2022-11-25T00:51:42.849Z,6.73
2022-11-25T00:54:10.430Z,6.47
2022-11-25T00:56:38.426Z,6.33
2022-11-25T00:59:06.606Z,7.60
2022-11-25T01:01:34.401Z,6.97
2022-11-25T01:04:06.302Z,7.53
2022-11-25T01:06:34.481Z,7.30
2022-11-25T01:09:02.488Z,6.93
2022-11-25T01:11:30.927Z,7.40
2022-11-25T01:14:01.473Z,8.33
2022-11-25T01:16:31.250Z,8.40
2022-11-25T01:19:00.086Z,8.77
2022-11-25T01:21:30.851Z,7.37
2022-11-25T01:24:01.830Z,8.17
2022-11-25T01:26:30.522Z,7.43
2022-11-25T01:29:01.557Z,7.90
2022-11-25T01:31:30.991Z,7.90
2022-11-25T01:34:01.748Z,6.80
2022-11-25T01:36:31.522Z,6.77
2022-11-25T01:39:01.245Z,8.07
2022-11-25T01:41:32.959Z,6.93
2022-11-25T01:44:10.083Z,7.60
2022-11-25T01:46:52.580Z,6.83
2022-11-25T01:49:25.047Z,7.10
2022-11-25T01:52:00.397Z,7.93
2022-11-25T01:54:31.412Z,7.60
2022-11-25T01:57:03.260Z,8.80
2022-11-25T01:59:35.732Z,8.83
2022-11-25T02:02:04.107Z,8.30
2022-11-25T02:04:36.784Z,8.30
2022-11-25T02:07:13.849Z,7.87
2022-11-25T02:09:46.874Z,9.83
2022-11-25T02:12:17.893Z,8.67
2022-11-25T02:14:46.811Z,8.10
2022-11-25T02:17:15.185Z,7.73
2022-11-25T02:19:57.028Z,8.17
2022-11-25T02:22:35.697Z,10.20
2022-11-25T02:25:14.780Z,8.00
2022-11-25T02:27:45.761Z,8.40
2022-11-25T02:30:14.146Z,8.40
2022-11-25T02:32:45.471Z,9.60
2022-11-25T02:35:28.294Z,8.60
2022-11-25T02:37:59.925Z,8.90
2022-11-25T02:40:31.324Z,7.83
2022-11-25T02:43:01.358Z,8.83
2022-11-25T02:45:38.414Z,8.70
2022-11-25T02:48:06.797Z,8.80
2022-11-25T02:50:34.622Z,9.73
2022-11-25T02:53:02.872Z,8.90
2022-11-25T02:55:31.964Z,8.50
2022-11-25T02:58:00.004Z,7.03
2022-11-25T03:00:28.444Z,8.30
2022-11-25T03:02:56.618Z,9.07
2022-11-25T03:05:25.220Z,8.60
2022-11-25T03:07:53.369Z,9.07
2022-11-25T03:10:23.181Z,9.13
2022-11-25T03:12:52.920Z,9.70
2022-11-25T03:15:21.779Z,8.53
2022-11-25T03:17:49.517Z,8.43
2022-11-25T03:20:17.842Z,8.23
2022-11-25T03:22:48.063Z,9.20
2022-11-25T03:25:17.043Z,10.10
2022-11-25T03:27:46.077Z,8.90
2022-11-25T03:30:17.751Z,8.80
2022-11-25T03:32:47.090Z,9.33
2022-11-25T03:35:15.364Z,10.67
2022-11-25T03:37:46.515Z,9.50
2022-11-25T03:40:16.496Z,9.10
2022-11-25T03:42:45.872Z,9.10
2022-11-25T03:45:16.340Z,8.90
2022-11-25T03:47:46.945Z,8.60
2022-11-25T03:50:16.738Z,7.73
2022-11-25T03:52:46.767Z,8.43
2022-11-25T03:55:14.846Z,8.13
2022-11-25T03:57:46.301Z,8.80
2022-11-25T04:00:16.429Z,8.33
2022-11-25T04:02:47.002Z,8.43
2022-11-25T04:05:18.446Z,9.03
2022-11-25T04:07:46.360Z,8.17
2022-11-25T04:10:14.993Z,8.33
2022-11-25T04:12:48.892Z,9.27
2022-11-25T04:15:23.566Z,9.03
2022-11-25T04:17:54.647Z,9.00
2022-11-25T04:20:22.383Z,7.50
2022-11-25T04:22:57.464Z,9.03
2022-11-25T04:25:25.452Z,7.90
2022-11-25T04:27:53.856Z,8.97
2022-11-25T04:30:29.762Z,7.93
2022-11-25T04:32:58.755Z,7.87
2022-11-25T04:35:26.548Z,8.63
2022-11-25T04:37:56.515Z,7.70
2022-11-25T04:40:25.974Z,8.13
2022-11-25T04:43:12.755Z,7.20
2022-11-25T04:48:36.838Z,6.50
2022-11-25T04:51:05.646Z,6.90
2022-11-25T04:53:33.708Z,7.17
2022-11-25T04:56:02.173Z,6.13
2022-11-25T04:58:53.346Z,6.53
2022-11-25T05:01:23.242Z,6.63
2022-11-25T05:03:57.679Z,6.97
2022-11-25T05:06:27.707Z,6.53
2022-11-25T05:08:55.663Z,6.63
2022-11-25T05:11:26.175Z,7.40
2022-11-25T05:13:54.678Z,8.03
2022-11-25T05:16:23.937Z,7.17
2022-11-25T05:18:52.672Z,7.03
2022-11-25T05:21:20.508Z,7.90
2022-11-25T05:23:53.018Z,6.80
2022-11-25T05:26:24.676Z,7.73
2022-11-25T05:28:54.772Z,7.30
2022-11-25T05:31:23.912Z,6.67
2022-11-25T05:33:52.000Z,5.70
2022-11-25T05:36:20.548Z,6.33
2022-11-25T05:38:48.941Z,6.97
2022-11-25T05:41:25.053Z,7.43
2022-11-25T05:43:53.814Z,7.00
2022-11-25T05:46:23.567Z,8.10
2022-11-25T05:48:55.753Z,8.30
2022-11-25T05:51:25.290Z,7.83
2022-11-25T05:53:54.924Z,7.17
2022-11-25T05:56:26.607Z,7.83
2022-11-25T05:59:12.942Z,7.50
2022-11-25T06:01:59.010Z,7.17
2022-11-25T06:04:27.877Z,7.97
2022-11-25T06:06:56.180Z,7.30
2022-11-25T06:09:24.091Z,7.23
2022-11-25T06:11:57.807Z,7.73
2022-11-25T06:14:26.138Z,7.87
2022-11-25T06:16:53.957Z,7.50
2022-11-25T06:19:37.629Z,8.40
2022-11-25T06:22:05.597Z,8.30
2022-11-25T06:24:33.952Z,11.27
2022-11-25T06:27:06.739Z,9.80
2022-11-25T06:29:36.745Z,10.90
2022-11-25T06:32:04.824Z,8.67
2022-11-25T06:34:45.247Z,8.60
2022-11-25T06:37:24.941Z,9.00
2022-11-25T06:39:53.676Z,9.30
2022-11-25T06:42:21.816Z,8.60
2022-11-25T06:44:49.507Z,8.50
2022-11-25T06:47:17.925Z,8.40
2022-11-25T06:49:47.373Z,9.23
2022-11-25T06:52:15.369Z,8.90
2022-11-25T06:54:43.580Z,9.10
2022-11-25T06:57:13.157Z,8.37
2022-11-25T06:59:40.841Z,11.47
2022-11-25T07:02:12.326Z,21.63
2022-11-25T07:04:41.175Z,26.10
2022-11-25T07:07:10.474Z,17.40
2022-11-25T07:09:38.340Z,12.60
2022-11-25T07:12:07.091Z,10.63
2022-11-25T07:14:35.151Z,9.33
2022-11-25T07:17:07.401Z,9.07
2022-11-25T07:19:38.739Z,10.20
2022-11-25T07:22:07.168Z,9.13
2022-11-25T07:24:37.067Z,9.00
2022-11-25T07:27:06.822Z,9.63
2022-11-25T07:29:57.881Z,8.80
2022-11-25T07:32:23.388Z,9.37
2022-11-25T07:34:51.249Z,8.80
2022-11-25T07:37:19.309Z,7.80
2022-11-25T07:39:48.699Z,9.17
2022-11-25T07:42:16.323Z,8.53
2022-11-25T07:44:44.495Z,9.10
2022-11-25T07:47:34.916Z,9.70
2022-11-25T07:50:02.700Z,8.50
2022-11-25T07:52:31.471Z,10.00
2022-11-25T07:55:00.521Z,12.00
2022-11-25T07:57:28.733Z,10.10
2022-11-25T07:59:56.405Z,10.70
2022-11-25T08:02:24.086Z,9.93
2022-11-25T08:04:52.219Z,10.70
2022-11-25T08:07:19.982Z,9.80
2022-11-25T08:09:48.664Z,9.10
2022-11-25T08:12:19.369Z,8.53
2022-11-25T08:14:49.740Z,8.67
2022-11-25T08:17:17.391Z,8.10
2022-11-25T08:19:45.715Z,7.53
2022-11-25T08:22:13.805Z,8.60
2022-11-25T08:24:42.187Z,8.27
2022-11-25T08:27:10.051Z,7.53
2022-11-25T08:29:39.381Z,9.20
2022-11-25T08:32:11.994Z,9.63
2022-11-25T08:34:40.257Z,10.17
2022-11-25T08:37:09.873Z,9.87
2022-11-25T08:39:54.027Z,9.27
2022-11-25T08:42:22.705Z,10.40
2022-11-25T08:44:55.887Z,9.60
2022-11-25T08:47:24.494Z,10.20
2022-11-25T08:49:53.012Z,8.90
2022-11-25T08:52:21.492Z,9.03
2022-11-25T08:54:49.343Z,10.10
2022-11-25T08:57:17.492Z,10.80
2022-11-25T08:59:45.195Z,8.63
2022-11-25T09:02:17.308Z,9.53
2022-11-25T09:04:45.356Z,8.67
2022-11-25T09:07:13.639Z,9.20
2022-11-25T09:09:41.888Z,9.70
2022-11-25T09:12:10.008Z,9.60
2022-11-25T09:14:38.119Z,10.53
2022-11-25T09:17:09.941Z,10.03
2022-11-25T09:19:39.561Z,11.50
2022-11-25T09:22:09.056Z,10.13
2022-11-25T09:24:37.365Z,9.40
2022-11-25T09:27:05.421Z,10.27
2022-11-25T09:29:33.550Z,9.43
2022-11-25T09:32:01.415Z,9.90
2022-11-25T09:34:30.096Z,9.00
2022-11-25T09:36:59.064Z,10.37
2022-11-25T09:39:30.108Z,10.40
2022-11-25T09:42:29.181Z,10.20
2022-11-25T09:45:31.910Z,9.20
2022-11-25T09:48:12.274Z,8.93
2022-11-25T09:50:55.182Z,9.10
2022-11-25T09:53:37.023Z,9.30
2022-11-25T09:56:12.881Z,9.00
2022-11-25T09:58:47.616Z,9.17
2022-11-25T10:01:20.026Z,9.13
2022-11-25T10:03:52.351Z,9.17
2022-11-25T10:06:24.102Z,9.20
2022-11-25T10:08:56.655Z,9.37
2022-11-25T10:11:35.784Z,9.27
2022-11-25T10:14:13.666Z,8.87
2022-11-25T10:16:51.780Z,9.53
2022-11-25T10:19:32.009Z,9.30
2022-11-25T10:21:59.822Z,8.63
2022-11-25T10:24:30.028Z,9.77
2022-11-25T10:27:03.551Z,8.13
2022-11-25T10:29:32.412Z,8.83
2022-11-25T10:32:13.219Z,8.40
2022-11-25T10:34:46.022Z,7.90
2022-11-25T10:37:19.492Z,8.10
2022-11-25T10:39:49.171Z,7.70
2022-11-25T10:42:21.811Z,7.73
2022-11-25T10:44:50.646Z,7.87
2022-11-25T10:47:35.361Z,6.93
2022-11-25T10:50:17.555Z,7.67
2022-11-25T10:52:51.393Z,8.20
2022-11-25T10:55:24.525Z,8.37
2022-11-25T10:57:52.457Z,8.70
2022-11-25T11:01:02.878Z,8.70
2022-11-25T11:03:30.634Z,7.77
2022-11-25T11:05:58.829Z,7.80
2022-11-25T11:08:28.607Z,7.27
2022-11-25T11:11:18.546Z,7.50
2022-11-25T11:13:48.014Z,7.20
2022-11-25T11:16:37.857Z,6.90
2022-11-25T11:19:07.010Z,6.83
2022-11-25T11:21:37.419Z,6.20
2022-11-25T11:24:26.536Z,7.50
2022-11-25T11:27:05.245Z,6.50
2022-11-25T11:29:33.608Z,7.30
2022-11-25T11:32:04.068Z,6.53
2022-11-25T11:34:47.097Z,6.23
2022-11-25T11:37:34.832Z,6.47
2022-11-25T11:40:27.595Z,6.80
2022-11-25T11:43:21.821Z,6.83
2022-11-25T11:46:01.151Z,7.07
2022-11-25T11:48:39.172Z,6.90
2022-11-25T11:51:19.093Z,7.20
2022-11-25T11:53:58.407Z,8.70
2022-11-25T11:56:36.286Z,8.90
2022-11-25T11:59:21.220Z,8.37
2022-11-25T12:10:25.497Z,8.37
2022-11-25T12:12:57.837Z,7.67
2022-11-25T12:15:41.527Z,8.20
2022-11-25T12:18:20.619Z,11.20
2022-11-25T12:20:58.700Z,9.90
2022-11-25T12:23:36.199Z,10.17
2022-11-25T12:26:10.316Z,9.40
2022-11-25T12:28:44.418Z,9.10
2022-11-25T12:31:18.089Z,8.80
2022-11-25T12:33:57.049Z,8.10
2022-11-25T12:36:32.591Z,8.77
2022-11-25T12:39:04.766Z,8.70
2022-11-25T12:41:41.700Z,8.90
2022-11-25T12:44:17.460Z,11.13
2022-11-25T12:46:50.151Z,10.80
2022-11-25T12:49:21.582Z,10.53
2022-11-25T12:52:16.922Z,9.90
2022-11-25T12:55:11.939Z,7.50
2022-11-25T12:58:25.786Z,8.97
2022-11-25T13:01:13.770Z,9.00
2022-11-25T13:04:08.519Z,10.03
2022-11-25T13:07:08.806Z,8.43
2022-11-25T13:09:57.566Z,8.77
2022-11-25T13:12:35.883Z,10.23
2022-11-25T13:15:29.526Z,9.70
2022-11-25T13:18:00.257Z,10.03
2022-11-25T13:20:47.120Z,11.37
2022-11-25T13:23:27.438Z,11.67
2022-11-25T13:26:45.086Z,11.70
2022-11-25T13:30:01.820Z,13.40
2022-11-25T13:32:40.264Z,12.70
2022-11-25T13:36:02.376Z,13.60
2022-11-25T13:38:58.159Z,13.87
2022-11-25T13:41:36.338Z,13.33
2022-11-25T13:44:07.392Z,12.87
2022-11-25T13:46:41.484Z,11.53
2022-11-25T13:49:25.152Z,7.43
2022-11-25T13:51:55.679Z,6.47
2022-11-25T13:54:32.918Z,7.43
2022-11-25T13:57:18.032Z,7.80
2022-11-25T13:59:52.144Z,8.40
2022-11-25T14:02:44.900Z,9.87
2022-11-25T14:05:40.752Z,8.10
2022-11-25T14:08:20.843Z,9.67
2022-11-25T14:11:01.609Z,9.63
2022-11-25T14:13:53.343Z,9.90
2022-11-25T14:16:40.783Z,9.07
2022-11-25T14:22:36.323Z,9.20
2022-11-25T14:25:15.589Z,8.47
2022-11-25T14:27:49.712Z,7.10
2022-11-25T14:30:18.945Z,6.80
2022-11-25T14:32:56.002Z,7.13
2022-11-25T14:35:28.886Z,7.20
2022-11-25T14:38:02.447Z,7.67
2022-11-25T14:40:35.851Z,6.40
2022-11-25T14:43:09.226Z,6.40
2022-11-25T14:45:37.074Z,6.17
2022-11-25T14:48:15.459Z,7.73
2022-11-25T14:50:55.743Z,6.00
2022-11-25T14:53:24.208Z,6.70
2022-11-25T14:55:54.391Z,5.70
2022-11-25T14:58:25.038Z,7.03
2022-11-25T15:01:00.771Z,5.63
2022-11-25T15:03:29.291Z,7.13
2022-11-25T15:05:58.530Z,6.70
2022-11-25T15:08:27.852Z,6.10
2022-11-25T15:10:59.040Z,5.97
2022-11-25T15:13:35.772Z,6.40
2022-11-25T15:16:09.505Z,6.10
2022-11-25T15:18:39.887Z,7.17
2022-11-25T15:21:08.355Z,6.73
2022-11-25T15:23:38.878Z,7.50
2022-11-25T15:26:18.602Z,7.63
2022-11-25T15:28:48.040Z,7.10
2022-11-25T15:31:21.178Z,7.00
2022-11-25T15:36:42.810Z,7.50
2022-11-25T15:39:24.951Z,6.70
2022-11-25T15:41:55.191Z,6.53
2022-11-25T15:44:27.473Z,6.57
2022-11-25T15:47:01.501Z,7.07
2022-11-25T15:49:30.294Z,6.70
2022-11-25T15:52:01.985Z,8.17
2022-11-25T15:54:32.839Z,7.00
2022-11-25T15:57:04.382Z,6.50
2022-11-25T15:59:51.901Z,6.17
2022-11-25T16:02:36.554Z,5.53
2022-11-25T16:05:27.874Z,4.60
2022-11-25T16:08:02.516Z,5.70
2022-11-25T16:10:33.516Z,4.50
2022-11-25T16:13:21.769Z,4.33
2022-11-25T16:15:54.975Z,4.20
2022-11-25T16:18:44.357Z,4.20
2022-11-25T16:21:14.618Z,2.87
2022-11-25T16:23:46.831Z,7.03
2022-11-25T16:26:18.386Z,7.73
2022-11-25T16:28:53.749Z,6.73
2022-11-25T16:31:23.569Z,6.77
2022-11-25T16:33:54.604Z,5.73
2022-11-25T16:36:22.475Z,5.13
2022-11-25T16:38:54.171Z,6.30
2022-11-25T16:41:24.577Z,8.70
2022-11-25T16:43:54.320Z,7.63
2022-11-25T16:46:26.402Z,7.57
2022-11-25T16:48:54.152Z,6.23
2022-11-25T16:51:23.458Z,6.17
2022-11-25T16:53:51.898Z,6.87
2022-11-25T16:56:24.785Z,4.70
2022-11-25T16:58:52.536Z,5.20
2022-11-25T17:01:21.488Z,4.40
2022-11-25T17:03:51.034Z,4.43
2022-11-25T17:06:22.332Z,4.60
2022-11-25T17:08:51.625Z,5.10
2022-11-25T17:11:23.298Z,4.90
2022-11-25T17:13:57.184Z,4.97
2022-11-25T17:16:27.780Z,5.30
2022-11-25T17:18:59.622Z,5.10
2022-11-25T17:21:28.881Z,4.70
2022-11-25T17:24:02.682Z,5.60
2022-11-25T17:26:38.238Z,5.30
2022-11-25T17:29:09.726Z,5.80
2022-11-25T17:31:38.710Z,5.23
2022-11-25T17:34:08.035Z,5.77
2022-11-25T17:36:35.842Z,5.77
2022-11-25T17:39:03.937Z,5.70
2022-11-25T17:41:34.282Z,6.07
2022-11-25T17:44:06.611Z,6.53
2022-11-25T17:46:34.286Z,5.20
2022-11-25T17:49:02.045Z,5.40
2022-11-25T17:51:31.644Z,6.30
2022-11-25T17:53:59.513Z,7.40
2022-11-25T17:56:30.364Z,9.07
2022-11-25T17:59:02.457Z,8.83
2022-11-25T18:01:30.356Z,11.80
2022-11-25T18:03:58.591Z,9.87
2022-11-25T18:06:26.668Z,9.00
2022-11-25T18:08:56.293Z,7.87
2022-11-25T18:11:24.412Z,9.23
2022-11-25T18:13:52.730Z,8.23
2022-11-25T18:16:23.399Z,8.97
2022-11-25T18:18:51.520Z,10.37
2022-11-25T18:21:19.945Z,8.97
2022-11-25T18:23:47.773Z,7.60
2022-11-25T18:26:17.007Z,8.67
2022-11-25T18:28:45.054Z,9.00
2022-11-25T18:31:13.939Z,6.80
2022-11-25T18:33:41.666Z,6.47
2022-11-25T18:36:14.279Z,6.77
2022-11-25T18:38:42.266Z,8.40
2022-11-25T18:41:22.273Z,8.00
2022-11-25T18:43:50.538Z,7.37
2022-11-25T18:46:18.308Z,7.33
2022-11-25T18:48:46.716Z,8.57
2022-11-25T18:51:15.937Z,7.80
2022-11-25T18:53:44.037Z,8.33
2022-11-25T18:56:17.646Z,7.57
2022-11-25T18:58:51.601Z,6.57
2022-11-25T19:01:21.739Z,6.77
2022-11-25T19:03:49.967Z,7.50
2022-11-25T19:06:18.725Z,7.90
2022-11-25T19:08:46.411Z,7.30
2022-11-25T19:11:19.322Z,6.97
2022-11-25T19:13:50.815Z,7.60
2022-11-25T19:16:21.754Z,7.37
2022-11-25T19:18:50.486Z,7.13
2022-11-25T19:21:21.003Z,7.00
2022-11-25T19:23:49.313Z,10.10
2022-11-25T19:26:21.247Z,8.10
2022-11-25T19:28:54.973Z,6.77
2022-11-25T19:31:22.949Z,7.13
2022-11-25T19:33:52.422Z,7.57
2022-11-25T19:36:24.592Z,9.33
2022-11-25T19:38:53.264Z,8.57
2022-11-25T19:41:21.514Z,8.73
2022-11-25T19:43:52.821Z,9.37
2022-11-25T19:46:33.072Z,9.10
2022-11-25T19:49:03.896Z,9.67
2022-11-25T19:51:34.026Z,9.57
2022-11-25T19:54:01.671Z,9.90
2022-11-25T19:56:29.428Z,9.97
2022-11-25T19:58:58.540Z,8.50
2022-11-25T20:01:33.084Z,9.00
2022-11-25T20:04:02.383Z,8.57
2022-11-25T20:06:31.549Z,7.80
2022-11-25T20:09:06.384Z,10.70
2022-11-25T20:11:37.700Z,9.90
2022-11-25T20:14:07.361Z,10.50
2022-11-25T20:16:38.745Z,11.90
2022-11-25T20:19:08.560Z,13.70
2022-11-25T20:21:40.118Z,11.03
2022-11-25T20:24:14.039Z,12.90
2022-11-25T20:26:46.243Z,12.30
2022-11-25T20:29:19.479Z,11.00
2022-11-25T20:31:48.476Z,11.00
2022-11-25T20:34:16.448Z,10.77
2022-11-25T20:36:45.712Z,9.97
2022-11-25T20:39:18.662Z,9.10
2022-11-25T20:41:50.107Z,8.40
2022-11-25T20:44:20.409Z,8.33
2022-11-25T20:46:49.298Z,7.33
2022-11-25T20:49:22.614Z,9.33
2022-11-25T20:51:50.842Z,10.10
2022-11-25T20:54:19.390Z,8.00
2022-11-25T20:56:47.046Z,7.70
2022-11-25T20:59:23.005Z,8.23
2022-11-25T21:01:51.581Z,7.63
2022-11-25T21:04:19.563Z,7.43
2022-11-25T21:06:48.053Z,8.00
2022-11-25T21:09:19.044Z,9.43
2022-11-25T21:11:47.099Z,8.87
2022-11-25T21:14:16.800Z,7.53
2022-11-25T21:16:46.820Z,7.67
2022-11-25T21:19:14.595Z,7.73
2022-11-25T21:21:45.569Z,7.73
2022-11-25T21:24:25.829Z,7.90
2022-11-25T21:26:54.622Z,7.50
2022-11-25T21:29:23.706Z,7.47
2022-11-25T21:31:53.676Z,8.10
2022-11-25T21:34:21.794Z,7.63
2022-11-25T21:36:53.076Z,7.20
2022-11-25T21:39:28.342Z,7.43
2022-11-25T21:41:57.484Z,7.63
2022-11-25T21:44:29.711Z,8.70
2022-11-25T21:46:59.189Z,7.63
2022-11-25T21:49:27.695Z,7.70
2022-11-25T21:51:55.621Z,8.10
2022-11-25T21:54:23.449Z,7.47
2022-11-25T21:56:52.878Z,8.30
2022-11-25T21:59:22.130Z,7.33
2022-11-25T22:01:50.799Z,7.90
2022-11-25T22:04:21.706Z,7.47
2022-11-25T22:06:51.362Z,7.40
2022-11-25T22:09:19.777Z,7.20
2022-11-25T22:11:50.732Z,8.00
2022-11-25T22:14:28.628Z,7.40
2022-11-25T22:16:58.410Z,6.67
2022-11-25T22:19:28.837Z,7.80
2022-11-25T22:22:03.245Z,8.83
2022-11-25T22:24:34.429Z,11.57
2022-11-25T22:27:04.045Z,11.73
2022-11-25T22:29:35.873Z,9.23
2022-11-25T22:32:09.665Z,10.00
2022-11-25T22:34:41.850Z,9.50
2022-11-25T22:37:17.172Z,10.53
2022-11-25T22:39:45.313Z,8.33
2022-11-25T22:42:21.188Z,9.73
2022-11-25T22:44:50.695Z,10.50
2022-11-25T22:47:28.653Z,8.40
2022-11-25T22:49:58.292Z,8.67
2022-11-25T22:52:28.885Z,8.90
2022-11-25T22:54:59.582Z,9.10
2022-11-25T22:57:28.885Z,9.80
2022-11-25T22:59:56.641Z,8.77
2022-11-25T23:02:30.573Z,9.27
2022-11-25T23:04:59.708Z,9.50
2022-11-25T23:07:28.007Z,7.93
2022-11-25T23:09:56.259Z,7.10
2022-11-25T23:12:25.843Z,7.90
2022-11-25T23:14:53.551Z,8.33
2022-11-25T23:17:25.171Z,9.00
2022-11-25T23:19:53.407Z,9.17
2022-11-25T23:22:23.664Z,9.27
2022-11-25T23:24:51.641Z,8.60
2022-11-25T23:27:20.085Z,8.23
2022-11-25T23:29:48.062Z,8.90
2022-11-25T23:32:19.387Z,8.70
2022-11-25T23:34:50.745Z,8.80
2022-11-25T23:37:19.151Z,8.80
2022-11-25T23:39:52.424Z,9.13
2022-11-25T23:42:22.113Z,9.20
2022-11-25T23:44:50.100Z,9.17
2022-11-25T23:47:20.622Z,8.33
2022-11-25T23:49:51.819Z,9.10
2022-11-25T23:52:22.882Z,9.97
2022-11-25T23:54:53.576Z,9.47
2022-11-25T23:57:24.539Z,9.10
2022-11-25T23:59:52.596Z,10.03
